Time;durP1;ratioP1;P1;durP2;ratioP2;P2;SDS_P1;SDS_P2;PMS_P1;PMS_P2;Temp;Humidity;BMP_temperature;BMP_pressure;BME280_temperature;BME280_humidity;BME280_pressure;Samples;Min_cycle;Max_cycle;Signal;HPM_P1;HPM_P2
2021/04/13 07:30:13;;;;;;;5.80;1.45;;;18.80;37.60;;;;;;5233245;22;20067;-52
2021/04/13 07:32:39;;;;;;;5.00;1.00;;;18.80;37.60;;;;;;5074383;28;20123;-53
2021/04/13 07:35:12;;;;;;;5.32;1.15;;;18.80;37.70;;;;;;5074211;28;20075;-53
2021/04/13 07:37:47;;;;;;;4.80;0.70;;;18.80;37.80;;;;;;5074455;28;20060;-51
2021/04/13 07:40:27;;;;;;;6.45;1.50;;;18.80;37.80;;;;;;5076527;28;20032;-53
2021/04/13 07:43:11;;;;;;;3.55;0.90;;;18.90;38.00;;;;;;5077688;28;20036;-55
2021/04/13 07:45:53;;;;;;;5.13;1.20;;;19.00;38.10;;;;;;5077678;28;20350;-49
2021/04/13 07:48:42;;;;;;;4.05;0.82;;;19.00;38.10;;;;;;5077610;28;20143;-47
2021/04/13 07:51:40;;;;;;;5.22;0.90;;;19.00;38.20;;;;;;5077209;28;20523;-54
2021/04/13 07:54:37;;;;;;;5.72;1.20;;;19.10;38.40;;;;;;5058680;28;20121;-55
2021/04/13 07:57:19;;;;;;;5.78;0.90;;;19.10;38.40;;;;;;5076797;28;20063;-53
2021/04/13 08:00:22;;;;;;;4.63;1.00;;;19.10;38.50;;;;;;5077194;28;20033;-49
2021/04/13 08:02:55;;;;;;;6.72;1.30;;;19.20;38.60;;;;;;5055687;28;20476;-52
2021/04/13 08:05:43;;;;;;;11.07;1.83;;;19.20;38.50;;;;;;5077230;28;20032;-49
2021/04/13 08:08:29;;;;;;;4.38;1.30;;;19.20;38.40;;;;;;5077124;28;20070;-47
2021/04/13 08:11:19;;;;;;;9.35;1.10;;;19.20;38.30;;;;;;5077095;28;20029;-47
2021/04/13 08:13:49;;;;;;;7.03;0.90;;;19.20;38.10;;;;;;5077361;28;20354;-49
2021/04/13 08:16:38;;;;;;;5.32;1.23;;;19.20;38.00;;;;;;5077051;28;20021;-46
2021/04/13 08:19:27;;;;;;;4.95;1.17;;;19.20;38.20;;;;;;5077001;28;20028;-51
2021/04/13 08:22:20;;;;;;;3.50;1.00;;;19.30;37.80;;;;;;5077077;28;20035;-46
2021/04/13 08:24:50;;;;;;;17.77;1.23;;;19.30;37.50;;;;;;5073015;28;20506;-54
2021/04/13 08:27:38;;;;;;;11.10;1.20;;;19.30;37.70;;;;;;5076498;28;20037;-49
2021/04/13 08:30:15;;;;;;;2.72;0.98;;;19.30;37.80;;;;;;5076757;28;20080;-54
2021/04/13 08:32:53;;;;;;;4.57;1.10;;;19.40;37.80;;;;;;5076890;28;20045;-52
2021/04/13 08:35:27;;;;;;;4.05;1.00;;;19.40;37.60;;;;;;5076800;28;20040;-49
2021/04/13 08:37:55;;;;;;;9.13;1.02;;;19.40;37.50;;;;;;5076439;28;20036;-52
2021/04/13 08:40:34;;;;;;;3.78;0.95;;;19.40;37.50;;;;;;5076332;28;20363;-48
2021/04/13 08:43:12;;;;;;;5.30;1.00;;;19.40;37.60;;;;;;5076467;28;20044;-49
2021/04/13 08:45:49;;;;;;;2.63;0.70;;;19.40;37.60;;;;;;5076313;28;20434;-53
2021/04/13 08:48:36;;;;;;;4.63;0.80;;;19.50;37.60;;;;;;5076342;28;20044;-53
2021/04/13 08:51:12;;;;;;;4.68;1.00;;;19.50;37.50;;;;;;5076335;28;20048;-51
2021/04/13 08:53:42;;;;;;;6.30;0.82;;;19.60;37.60;;;;;;5076230;28;20028;-55
2021/04/13 08:56:23;;;;;;;2.60;1.00;;;19.60;37.50;;;;;;5076501;28;20111;-56
2021/04/13 08:58:54;;;;;;;4.97;0.80;;;19.60;37.40;;;;;;5076072;28;20032;-50
2021/04/13 09:01:28;;;;;;;3.65;0.55;;;19.70;37.40;;;;;;5076024;28;20430;-50
2021/04/13 09:03:54;;;;;;;4.05;0.98;;;19.70;37.40;;;;;;5076423;28;20036;-50
2021/04/13 09:06:28;;;;;;;5.28;0.82;;;19.70;37.30;;;;;;5075970;28;20453;-48
2021/04/13 09:09:10;;;;;;;2.58;0.90;;;19.80;37.40;;;;;;5075886;28;20044;-49
2021/04/13 09:11:53;;;;;;;1.85;0.73;;;19.70;37.50;;;;;;5075975;28;20036;-48
2021/04/13 09:14:32;;;;;;;2.25;0.60;;;19.70;37.50;;;;;;5075996;28;20047;-52
2021/04/13 09:17:17;;;;;;;2.08;0.82;;;19.80;37.60;;;;;;5076060;28;20025;-51
2021/04/13 09:20:09;;;;;;;7.05;0.80;;;19.80;37.70;;;;;;5058422;28;20134;-52
2021/04/13 09:22:46;;;;;;;6.82;0.77;;;19.80;37.80;;;;;;5075776;28;20123;-54
2021/04/13 09:25:29;;;;;;;4.25;0.82;;;19.80;37.80;;;;;;5075819;28;20033;-56
2021/04/13 09:28:18;;;;;;;3.15;0.95;;;19.80;37.90;;;;;;5075356;28;20099;-48
2021/04/13 09:30:49;;;;;;;4.65;1.00;;;19.80;38.00;;;;;;5075838;28;20048;-53
2021/04/13 09:33:21;;;;;;;6.35;0.90;;;19.80;38.20;;;;;;5075151;28;20454;-48
2021/04/13 09:36:24;;;;;;;4.93;0.82;;;19.80;38.50;;;;;;5075313;28;20166;-51
2021/04/13 09:39:15;;;;;;;5.95;0.75;;;19.80;38.30;;;;;;5075589;28;20328;-47
2021/04/13 09:42:18;;;;;;;9.50;1.20;;;19.90;38.50;;;;;;5075607;28;20028;-53
2021/04/13 09:45:07;;;;;;;6.28;1.02;;;19.80;38.50;;;;;;5075308;28;20033;-51
2021/04/13 09:48:11;;;;;;;2.58;0.60;;;19.90;38.40;;;;;;5075263;28;20049;-46
2021/04/13 09:50:42;;;;;;;;;;;19.90;38.40;;;;;;5024383;28;20045;-50
2021/04/13 09:53:55;;;;;;;2.28;0.65;;;19.90;38.40;;;;;;5075691;28;19961;-48
2021/04/13 09:56:49;;;;;;;4.85;0.95;;;19.90;38.30;;;;;;5057693;28;20044;-50
2021/04/13 09:59:42;;;;;;;3.40;0.80;;;19.90;38.10;;;;;;5057276;28;20381;-48
2021/04/13 10:02:44;;;;;;;6.03;1.02;;;19.80;37.40;;;;;;5074279;28;20037;-50
2021/04/13 10:05:10;;;;;;;3.75;1.38;;;19.70;37.30;;;;;;5074435;28;20373;-49
2021/04/13 10:07:54;;;;;;;4.60;1.10;;;19.70;37.80;;;;;;5074396;28;20048;-52
2021/04/13 10:10:30;;;;;;;;;;;19.70;37.80;;;;;;5075661;28;20052;-51
2021/04/13 10:13:05;;;;;;;5.60;1.05;;;19.60;37.60;;;;;;5074678;28;19904;-52
2021/04/13 10:16:02;;;;;;;3.22;0.60;;;19.70;37.90;;;;;;5075006;28;20324;-52
2021/04/13 10:18:46;;;;;;;2.15;0.70;;;19.70;38.00;;;;;;5074710;28;20431;-52
2021/04/13 10:21:30;;;;;;;2.03;0.52;;;19.80;37.80;;;;;;5075129;28;20177;-53
2021/04/13 10:24:39;;;;;;;4.47;1.08;;;19.70;37.60;;;;;;5074775;28;20032;-57
2021/04/13 10:27:31;;;;;;;3.10;0.73;;;19.80;37.50;;;;;;5042781;28;20117;-48
2021/04/13 10:30:33;;;;;;;2.70;0.85;;;19.80;37.80;;;;;;5074503;28;20072;-48
2021/04/13 10:33:25;;;;;;;9.20;1.05;;;19.80;38.40;;;;;;5074197;28;20530;-49
2021/04/13 10:36:20;;;;;;;2.42;0.60;;;19.90;37.90;;;;;;5074198;28;20044;-47
2021/04/13 10:39:07;;;;;;;1.83;0.43;;;19.90;38.00;;;;;;5074985;28;20062;-49
2021/04/13 10:42:08;;;;;;;3.65;1.40;;;19.90;38.00;;;;;;5074246;28;20036;-51
2021/04/13 10:45:04;;;;;;;7.10;0.52;;;19.90;38.10;;;;;;5073852;28;20363;-48
2021/04/13 10:47:58;;;;;;;5.00;0.73;;;20.00;38.10;;;;;;5074179;28;20455;-49
2021/04/13 10:50:50;;;;;;;7.15;1.15;;;20.00;38.20;;;;;;5056642;28;20047;-50
2021/04/13 10:53:58;;;;;;;1.65;0.47;;;20.00;38.20;;;;;;5074473;28;20443;-55
2021/04/13 10:57:04;;;;;;;2.97;1.02;;;20.00;38.20;;;;;;5074286;28;20035;-56
2021/04/13 11:00:14;;;;;;;5.43;0.80;;;20.10;38.30;;;;;;5074931;28;20079;-49
2021/04/13 11:02:59;;;;;;;4.43;0.82;;;20.10;38.20;;;;;;5074172;28;20070;-52
2021/04/13 11:05:37;;;;;;;3.03;0.73;;;20.10;38.10;;;;;;5074409;28;20363;-53
2021/04/13 11:08:51;;;;;;;4.35;0.90;;;20.10;38.20;;;;;;5074045;28;20127;-51
2021/04/13 11:11:55;;;;;;;5.80;1.00;;;20.10;38.20;;;;;;5057343;28;20382;-55
2021/04/13 11:14:46;;;;;;;7.10;1.20;;;20.10;38.20;;;;;;5037976;28;20032;-54
2021/04/13 11:17:33;;;;;;;4.70;1.00;;;20.10;38.20;;;;;;5077636;28;20032;-54
2021/04/13 11:20:20;;;;;;;9.63;1.90;;;20.10;38.30;;;;;;5078163;28;20190;-51
2021/04/13 11:23:01;;;;;;;3.22;0.80;;;20.10;38.40;;;;;;5078175;28;20029;-54
2021/04/13 11:26:03;;;;;;;6.53;1.17;;;20.10;38.40;;;;;;5077429;28;20485;-52
2021/04/13 11:29:02;;;;;;;8.20;0.85;;;20.10;38.50;;;;;;5077947;28;20344;-51
2021/04/13 11:32:02;;;;;;;1.00;0.40;;;20.20;38.60;;;;;;5077376;28;20061;-53
2021/04/13 11:34:27;;;;;;;4.28;0.77;;;20.10;38.60;;;;;;5077894;28;20036;-56
2021/04/13 11:37:17;;;;;;;2.58;0.52;;;20.10;38.70;;;;;;5077920;28;20374;-54
2021/04/13 11:40:20;;;;;;;2.65;0.60;;;20.10;38.80;;;;;;5077770;28;20033;-47
2021/04/13 11:42:50;;;;;;;1.27;0.40;;;20.10;38.80;;;;;;5077557;28;20037;-51
2021/04/13 11:45:43;;;;;;;8.13;0.98;;;20.10;38.80;;;;;;5077572;28;20101;-57
2021/04/13 11:48:30;;;;;;;2.88;0.60;;;20.10;38.80;;;;;;5077395;28;20277;-49
2021/04/13 11:51:18;;;;;;;4.75;0.75;;;20.20;38.80;;;;;;5077001;28;20040;-52
2021/04/13 11:53:47;;;;;;;2.20;0.50;;;20.10;38.80;;;;;;5063933;28;20343;-53
2021/04/13 11:56:21;;;;;;;2.28;0.60;;;20.10;38.70;;;;;;5077700;28;20057;-57
2021/04/13 11:59:12;;;;;;;2.38;0.95;;;20.10;38.80;;;;;;5077345;28;20033;-49
2021/04/13 12:02:04;;;;;;;2.38;0.40;;;20.10;38.80;;;;;;5077388;28;20036;-50
2021/04/13 12:04:45;;;;;;;3.00;0.70;;;20.10;38.70;;;;;;5038340;28;20442;-52
2021/04/13 12:07:12;;;;;;;9.70;1.00;;;20.10;38.20;;;;;;5076484;28;20415;-53
2021/04/13 12:09:41;;;;;;;2.75;0.90;;;20.10;37.90;;;;;;5077207;28;20037;-54
2021/04/13 12:12:29;;;;;;;6.38;0.80;;;20.10;37.80;;;;;;5076877;28;20431;-50
2021/04/13 12:14:57;;;;;;;3.17;0.60;;;20.10;37.70;;;;;;5077042;28;20032;-52
2021/04/13 12:17:34;;;;;;;2.30;0.50;;;20.10;37.70;;;;;;5077058;28;20032;-51
2021/04/13 12:20:27;;;;;;;5.03;0.30;;;20.10;37.70;;;;;;5076922;28;20039;-47
2021/04/13 12:22:55;;;;;;;6.20;0.45;;;20.10;37.70;;;;;;5076943;28;20124;-49
2021/04/13 12:25:34;;;;;;;2.78;0.40;;;20.10;37.70;;;;;;5076640;28;20032;-49
2021/04/13 12:28:03;;;;;;;1.40;0.60;;;20.10;37.60;;;;;;5076278;28;20044;-53
2021/04/13 12:30:32;;;;;;;4.82;0.40;;;20.10;37.60;;;;;;5076946;28;20048;-51
2021/04/13 12:32:58;;;;;;;2.20;1.08;;;20.10;37.60;;;;;;5076738;28;20029;-51
2021/04/13 12:35:57;;;;;;;1.08;0.50;;;20.10;37.60;;;;;;5076446;28;20470;-52
2021/04/13 12:38:41;;;;;;;0.73;0.40;;;20.10;37.60;;;;;;5022860;28;20036;-50
2021/04/13 12:41:27;;;;;;;3.70;0.52;;;20.10;37.60;;;;;;5076689;28;20443;-49
2021/04/13 12:44:01;;;;;;;2.33;0.50;;;20.10;37.60;;;;;;5058539;28;20477;-50
2021/04/13 12:46:33;;;;;;;1.85;0.70;;;20.10;37.50;;;;;;5076629;28;20114;-51
2021/04/13 12:49:11;;;;;;;0.65;0.43;;;20.10;37.50;;;;;;5076145;28;20056;-50
2021/04/13 12:52:01;;;;;;;1.02;0.52;;;20.10;37.50;;;;;;5076842;28;20124;-51
2021/04/13 12:54:31;;;;;;;1.35;0.43;;;20.10;37.50;;;;;;5076015;28;20332;-50
2021/04/13 12:57:20;;;;;;;3.42;0.65;;;20.10;37.50;;;;;;5076310;28;20352;-52
2021/04/13 12:59:47;;;;;;;1.23;0.40;;;20.10;37.50;;;;;;5076275;28;20061;-56
2021/04/13 13:02:31;;;;;;;1.80;0.73;;;20.00;37.50;;;;;;5076567;28;20354;-53
2021/04/13 13:04:57;;;;;;;4.45;0.77;;;20.00;37.30;;;;;;5076096;28;20036;-50
2021/04/13 13:07:26;;;;;;;4.65;0.95;;;20.10;37.40;;;;;;5075396;28;20047;-52
2021/04/13 13:09:52;;;;;;;1.77;0.57;;;20.00;37.30;;;;;;5075531;28;20037;-50
2021/04/13 13:12:39;;;;;;;2.55;0.47;;;20.00;37.30;;;;;;5076123;28;20465;-51
2021/04/13 13:15:08;;;;;;;1.52;0.43;;;20.00;37.40;;;;;;5075824;28;20138;-50
2021/04/13 13:17:40;;;;;;;1.67;0.45;;;20.10;37.40;;;;;;5075897;28;20036;-55
2021/04/13 13:20:17;;;;;;;7.95;0.70;;;20.10;37.50;;;;;;5075902;28;20029;-54
2021/04/13 13:22:50;;;;;;;2.67;0.45;;;20.00;37.50;;;;;;5076251;28;20086;-50
2021/04/13 13:25:23;;;;;;;2.17;1.00;;;20.00;37.60;;;;;;5075380;28;20366;-50
2021/04/13 13:27:49;;;;;;;6.25;0.70;;;20.10;37.70;;;;;;5075060;28;20040;-52
2021/04/13 13:30:17;;;;;;;7.68;0.43;;;20.00;37.60;;;;;;5075615;28;20054;-53
2021/04/13 13:32:44;;;;;;;2.50;0.50;;;20.10;37.70;;;;;;5075575;28;20459;-49
2021/04/13 13:35:13;;;;;;;2.03;0.32;;;20.10;37.70;;;;;;5075670;28;20037;-53
2021/04/13 13:37:51;;;;;;;3.97;0.52;;;20.00;37.70;;;;;;5057275;28;20043;-50
2021/04/13 13:40:33;;;;;;;4.93;0.50;;;20.10;37.80;;;;;;5075243;28;20029;-51
2021/04/13 13:43:03;;;;;;;0.77;0.40;;;20.10;37.80;;;;;;5075461;28;20335;-50
2021/04/13 13:45:42;;;;;;;2.60;0.50;;;20.10;37.80;;;;;;5075368;28;20033;-50
2021/04/13 13:48:26;;;;;;;1.48;0.77;;;20.10;37.80;;;;;;5075250;28;20037;-55
2021/04/13 13:51:10;;;;;;;5.65;0.57;;;20.10;37.80;;;;;;5073800;28;20044;-53
2021/04/13 13:53:51;;;;;;;2.05;0.60;;;20.10;37.80;;;;;;5075046;28;20043;-53
2021/04/13 13:56:32;;;;;;;2.00;0.40;;;20.10;37.90;;;;;;5074955;28;20025;-55
2021/04/13 13:59:26;;;;;;;6.72;0.90;;;20.10;38.00;;;;;;5074875;28;20040;-57
2021/04/13 14:02:02;;;;;;;3.20;0.90;;;20.00;37.90;;;;;;5075155;28;20060;-57
2021/04/13 14:04:33;;;;;;;7.25;1.25;;;20.10;38.00;;;;;;5075203;28;20036;-57
2021/04/13 14:07:00;;;;;;;3.70;0.85;;;20.10;38.20;;;;;;5074896;28;20048;-54
2021/04/13 14:09:27;;;;;;;2.35;1.20;;;20.10;38.30;;;;;;5074766;28;20032;-56
2021/04/13 14:11:53;;;;;;;3.15;0.90;;;20.10;38.30;;;;;;5074670;28;20446;-55
2021/04/13 14:14:24;;;;;;;2.80;0.93;;;20.10;38.20;;;;;;5075223;28;20111;-50
2021/04/13 14:16:52;;;;;;;4.63;1.02;;;20.10;38.10;;;;;;5075006;28;20036;-50
2021/04/13 14:19:24;;;;;;;6.60;1.20;;;20.10;38.00;;;;;;5074618;28;20032;-53
2021/04/13 14:22:14;;;;;;;5.57;0.98;;;20.10;37.60;;;;;;5074678;28;20029;-53
2021/04/13 14:24:43;;;;;;;2.08;0.63;;;20.10;37.10;;;;;;5062466;28;20040;-57
2021/04/13 14:27:13;;;;;;;4.57;1.08;;;20.10;37.20;;;;;;5074766;28;20040;-50
2021/04/13 14:29:41;;;;;;;2.78;0.70;;;20.10;37.20;;;;;;5074178;28;20072;-53
2021/04/13 14:32:07;;;;;;;1.27;0.82;;;20.10;37.30;;;;;;5075107;28;20032;-54
2021/04/13 14:34:35;;;;;;;2.10;0.55;;;20.10;37.30;;;;;;5074704;28;20025;-53
2021/04/13 14:37:18;;;;;;;2.28;0.80;;;20.10;37.30;;;;;;5074259;28;20040;-51
2021/04/13 14:39:53;;;;;;;1.88;0.70;;;20.10;37.40;;;;;;5074592;28;20435;-49
2021/04/13 14:42:22;;;;;;;7.22;0.70;;;20.10;37.40;;;;;;5074568;28;20111;-52
2021/04/13 14:44:50;;;;;;;4.05;1.05;;;20.10;37.50;;;;;;5073833;28;20071;-50
2021/04/13 14:47:21;;;;;;;1.63;0.70;;;20.10;37.50;;;;;;5073935;28;20440;-50
2021/04/13 14:49:46;;;;;;;1.65;0.68;;;20.10;37.50;;;;;;5078407;28;20029;-51
2021/04/13 14:52:12;;;;;;;2.25;0.93;;;20.10;37.60;;;;;;5078968;28;20162;-51
2021/04/13 14:54:38;;;;;;;1.23;0.43;;;20.10;37.50;;;;;;5078262;28;20439;-50
2021/04/13 14:57:04;;;;;;;2.72;0.55;;;20.10;37.60;;;;;;5078511;28;20043;-52
2021/04/13 14:59:29;;;;;;;2.60;0.82;;;20.10;37.60;;;;;;5077789;28;20041;-55
2021/04/13 15:01:55;;;;;;;1.50;0.70;;;20.10;37.60;;;;;;5078438;28;20036;-50
2021/04/13 15:04:21;;;;;;;1.90;0.50;;;20.10;37.60;;;;;;5078405;28;20131;-51
2021/04/13 15:06:50;;;;;;;2.95;0.75;;;20.10;37.60;;;;;;5077937;28;20456;-48
2021/04/13 15:09:15;;;;;;;1.05;0.50;;;20.10;37.60;;;;;;5078298;28;20102;-52
2021/04/13 15:11:41;;;;;;;4.22;0.55;;;20.10;37.60;;;;;;5077827;28;20032;-48
2021/04/13 15:14:06;;;;;;;1.67;0.73;;;20.10;37.60;;;;;;5077959;28;20033;-54
2021/04/13 15:16:32;;;;;;;2.58;0.50;;;20.10;37.60;;;;;;5078055;28;20104;-52
2021/04/13 15:18:58;;;;;;;1.20;0.40;;;20.10;37.60;;;;;;5077918;28;20036;-51
2021/04/13 15:21:27;;;;;;;1.48;0.60;;;20.00;37.60;;;;;;5078039;28;20097;-53
2021/04/13 15:23:53;;;;;;;3.40;0.77;;;20.00;37.60;;;;;;5077728;28;20443;-53
2021/04/13 15:26:19;;;;;;;0.98;0.40;;;20.00;37.60;;;;;;5077501;28;20467;-53
2021/04/13 15:28:45;;;;;;;3.53;0.73;;;20.00;37.60;;;;;;5077406;28;20051;-53
2021/04/13 15:31:11;;;;;;;1.10;0.57;;;20.00;37.60;;;;;;5078271;28;20123;-57
2021/04/13 15:33:47;;;;;;;1.95;0.82;;;20.00;37.30;;;;;;5077980;28;20041;-50
2021/04/13 15:36:20;;;;;;;1.88;0.50;;;20.00;37.10;;;;;;5077835;28;20032;-48
2021/04/13 15:38:46;;;;;;;;;;;20.00;37.10;;;;;;5078468;28;20058;-53
2021/04/13 15:41:15;;;;;;;2.88;0.50;;;20.00;37.20;;;;;;5077880;28;19904;-49
2021/04/13 15:43:48;;;;;;;1.02;0.45;;;20.00;37.20;;;;;;5078059;28;20056;-55
2021/04/13 15:46:29;;;;;;;2.63;0.50;;;19.90;37.10;;;;;;5077682;28;20090;-49
2021/04/13 15:49:09;;;;;;;2.30;0.35;;;19.90;37.10;;;;;;5077327;28;20074;-51
2021/04/13 15:51:35;;;;;;;0.73;0.40;;;19.90;37.10;;;;;;5077438;28;20043;-54
2021/04/13 15:54:01;;;;;;;1.17;0.50;;;19.90;37.10;;;;;;5077518;28;20120;-55
2021/04/13 15:56:27;;;;;;;1.38;0.47;;;19.90;37.10;;;;;;5060095;28;20025;-51
2021/04/13 15:58:53;;;;;;;5.32;0.80;;;19.90;37.00;;;;;;5077783;28;20032;-51
2021/04/13 16:01:21;;;;;;;5.13;0.52;;;19.90;37.00;;;;;;5076672;28;20378;-53
2021/04/13 16:03:48;;;;;;;2.55;0.50;;;19.80;36.80;;;;;;5077417;28;20055;-57
2021/04/13 16:06:14;;;;;;;4.07;0.60;;;19.80;36.80;;;;;;5077330;28;20034;-57
2021/04/13 16:08:39;;;;;;;3.35;0.50;;;19.80;36.70;;;;;;5077540;28;20059;-53
2021/04/13 16:11:05;;;;;;;3.95;0.57;;;19.80;36.80;;;;;;5077515;28;20036;-56
2021/04/13 16:13:31;;;;;;;5.38;0.80;;;19.80;36.80;;;;;;5077140;28;20462;-55
2021/04/13 16:15:56;;;;;;;1.83;0.30;;;19.80;36.80;;;;;;5077121;28;20045;-60
2021/04/13 16:18:22;;;;;;;3.75;0.40;;;19.80;36.50;;;;;;5077253;28;20102;-56
2021/04/13 16:20:50;;;;;;;3.28;0.65;;;19.70;35.60;;;;;;5077138;28;20033;-53
2021/04/13 16:23:16;;;;;;;1.58;0.40;;;19.80;35.70;;;;;;5077501;28;20413;-54
2021/04/13 16:25:41;;;;;;;4.20;0.57;;;19.80;35.80;;;;;;5059322;28;20108;-56
2021/04/13 16:28:08;;;;;;;7.65;0.75;;;19.80;35.80;;;;;;5076857;28;20087;-55
2021/04/13 16:30:34;;;;;;;3.80;0.45;;;19.70;35.80;;;;;;5076654;28;20462;-52
2021/04/13 16:33:02;;;;;;;0.13;0.10;;;19.70;35.70;;;;;;5076818;28;20040;-53
2021/04/13 16:35:28;;;;;;;1.35;0.40;;;19.70;35.70;;;;;;5076897;28;20040;-56
2021/04/13 16:37:55;;;;;;;3.60;0.68;;;19.70;35.80;;;;;;5076740;28;20032;-52
2021/04/13 16:40:33;;;;;;;1.98;0.38;;;19.70;35.70;;;;;;5076412;28;20458;-57
2021/04/13 16:43:04;;;;;;;2.10;0.45;;;19.70;35.70;;;;;;5076647;28;20112;-56
2021/04/13 16:45:38;;;;;;;6.63;0.52;;;19.70;35.70;;;;;;5076670;28;20448;-57
2021/04/13 16:48:10;;;;;;;2.42;0.70;;;19.70;35.70;;;;;;5076512;28;20036;-54
2021/04/13 16:50:38;;;;;;;1.57;0.50;;;19.70;35.70;;;;;;5076507;28;20028;-54
2021/04/13 16:53:10;;;;;;;1.42;0.40;;;19.60;35.70;;;;;;5076544;28;20342;-56
2021/04/13 16:55:35;;;;;;;1.23;0.60;;;19.60;35.60;;;;;;5076550;28;20446;-56
2021/04/13 16:58:02;;;;;;;0.98;0.43;;;19.60;35.60;;;;;;5076441;28;20174;-55
2021/04/13 17:00:28;;;;;;;0.82;0.38;;;19.60;35.60;;;;;;5076166;28;20079;-56
2021/04/13 17:03:26;;;;;;;1.58;0.30;;;19.60;35.60;;;;;;5076072;28;20555;-54
2021/04/13 17:06:12;;;;;;;1.08;0.30;;;19.50;35.70;;;;;;5036066;28;20033;-56
2021/04/13 17:08:41;;;;;;;1.70;0.60;;;19.50;35.60;;;;;;5076195;28;20472;-54
2021/04/13 17:11:17;;;;;;;1.33;0.50;;;19.50;35.60;;;;;;5075654;28;20039;-55
2021/04/13 17:14:21;;;;;;;6.70;0.30;;;19.50;35.60;;;;;;5076133;28;20036;-55
2021/04/13 17:16:53;;;;;;;4.00;0.43;;;19.50;35.60;;;;;;5076233;28;20044;-53
2021/04/13 17:19:25;;;;;;;0.88;0.40;;;19.40;35.60;;;;;;5058038;28;20461;-58
2021/04/13 17:21:54;;;;;;;2.25;0.40;;;19.40;35.70;;;;;;5076115;28;20425;-53
2021/04/13 17:24:42;;;;;;;0.88;0.40;;;19.50;35.80;;;;;;5075516;28;20477;-52
2021/04/13 17:27:30;;;;;;;0.80;0.20;;;19.50;35.80;;;;;;5075850;28;20044;-52
2021/04/13 17:30:08;;;;;;;2.50;0.50;;;19.50;35.90;;;;;;5075134;28;20052;-52
2021/04/13 17:32:39;;;;;;;1.40;0.30;;;19.50;36.00;;;;;;5075825;28;20072;-57
2021/04/13 17:35:09;;;;;;;1.42;0.38;;;19.40;36.00;;;;;;5075885;28;20067;-55
2021/04/13 17:37:39;;;;;;;3.60;0.70;;;19.50;36.10;;;;;;5075245;28;20032;-55
2021/04/13 17:40:10;;;;;;;0.57;0.35;;;19.40;36.10;;;;;;5075257;28;20107;-52
2021/04/13 17:42:45;;;;;;;0.88;0.32;;;19.40;36.10;;;;;;5075335;28;20422;-53
2021/04/13 17:45:14;;;;;;;0.68;0.30;;;19.40;36.20;;;;;;5075772;28;20044;-58
2021/04/13 17:47:43;;;;;;;1.48;0.20;;;19.40;36.20;;;;;;5057332;28;20131;-53
2021/04/13 17:50:19;;;;;;;0.98;0.20;;;19.40;36.20;;;;;;5075487;28;20497;-59
2021/04/13 17:52:45;;;;;;;0.75;0.45;;;19.40;36.30;;;;;;5075557;28;20056;-54
2021/04/13 17:55:26;;;;;;;0.45;0.20;;;19.40;36.30;;;;;;5074919;28;20411;-52
2021/04/13 17:57:52;;;;;;;1.35;0.32;;;19.40;36.30;;;;;;5075135;28;20404;-56
2021/04/13 18:00:20;;;;;;;0.20;0.20;;;19.40;36.30;;;;;;5075418;28;20103;-55
2021/04/13 18:02:49;;;;;;;0.82;0.40;;;19.40;36.30;;;;;;5057526;28;20025;-55
2021/04/13 18:05:21;;;;;;;1.00;0.22;;;19.40;36.30;;;;;;5074891;28;20039;-58
2021/04/13 18:07:57;;;;;;;0.30;0.20;;;19.40;37.00;;;;;;5057603;28;20367;-58
2021/04/13 18:10:27;;;;;;;1.65;0.70;;;19.40;36.30;;;;;;5057864;28;20454;-58
2021/04/13 18:12:56;;;;;;;0.73;0.30;;;19.30;36.30;;;;;;5075208;28;20171;-54
2021/04/13 18:15:33;;;;;;;0.60;0.60;;;19.30;36.30;;;;;;5075062;28;20068;-54
2021/04/13 18:18:06;;;;;;;0.88;0.20;;;19.30;36.30;;;;;;5074655;28;20059;-54
2021/04/13 18:20:37;;;;;;;0.40;0.20;;;19.30;36.30;;;;;;5057674;28;20117;-53
2021/04/13 18:23:06;;;;;;;0.90;0.38;;;19.30;36.30;;;;;;5074495;28;20029;-57
2021/04/13 18:25:54;;;;;;;0.45;0.30;;;19.30;36.30;;;;;;5075319;28;20040;-54
2021/04/13 18:28:27;;;;;;;0.88;0.20;;;19.30;36.30;;;;;;5074449;28;20127;-55
2021/04/13 18:30:59;;;;;;;0.20;0.20;;;19.30;36.40;;;;;;5074858;28;20037;-56
2021/04/13 18:33:37;;;;;;;0.35;0.25;;;19.30;36.40;;;;;;5074923;28;20048;-56
2021/04/13 18:36:08;;;;;;;0.88;0.40;;;19.20;36.30;;;;;;5057115;28;20036;-55
2021/04/13 18:38:39;;;;;;;0.93;0.40;;;19.20;36.20;;;;;;5074244;28;20036;-49
2021/04/13 18:41:13;;;;;;;2.83;0.68;;;19.20;36.00;;;;;;5074593;28;20033;-58
2021/04/13 18:44:01;;;;;;;4.68;0.80;;;19.20;35.50;;;;;;5074697;28;20035;-53
2021/04/13 18:46:31;;;;;;;2.00;0.50;;;19.20;36.00;;;;;;5074684;28;20103;-54
2021/04/13 18:49:10;;;;;;;6.63;0.68;;;19.10;35.50;;;;;;5074376;28;20130;-58
2021/04/13 18:51:41;;;;;;;2.13;0.40;;;19.10;35.60;;;;;;5075021;28;20487;-57
2021/04/13 18:54:16;;;;;;;3.50;0.68;;;19.10;35.70;;;;;;5074747;28;20032;-56
2021/04/13 18:56:49;;;;;;;2.20;0.70;;;19.10;35.40;;;;;;5074587;28;20048;-54
2021/04/13 18:59:24;;;;;;;5.35;0.80;;;19.00;35.50;;;;;;5074440;28;20024;-54
2021/04/13 19:01:56;;;;;;;4.95;0.85;;;19.00;35.80;;;;;;5074977;28;20350;-55
2021/04/13 19:04:22;;;;;;;4.15;0.85;;;19.10;35.80;;;;;;5074838;28;20032;-53
2021/04/13 19:07:23;;;;;;;5.15;0.93;;;19.20;36.00;;;;;;5074343;28;20039;-56
2021/04/13 19:09:55;;;;;;;4.28;0.82;;;19.20;36.00;;;;;;5064814;28;20037;-54
2021/04/13 19:12:26;;;;;;;2.35;0.50;;;19.30;36.10;;;;;;5074425;28;20025;-54
2021/04/13 19:14:59;;;;;;;1.45;0.70;;;19.40;36.20;;;;;;5056637;28;20501;-59
2021/04/13 19:17:38;;;;;;;1.95;0.85;;;19.40;36.10;;;;;;5074349;28;20071;-56
2021/04/13 19:20:28;;;;;;;2.70;0.68;;;19.40;36.10;;;;;;5074242;28;20120;-57
2021/04/13 19:23:07;;;;;;;4.15;0.90;;;19.40;36.10;;;;;;5074030;28;20419;-57
2021/04/13 19:26:16;;;;;;;3.97;0.82;;;19.50;36.30;;;;;;5074409;28;20025;-57
2021/04/13 19:28:55;;;;;;;2.90;0.60;;;19.50;36.30;;;;;;5073027;28;20444;-55
2021/04/13 19:31:33;;;;;;;1.52;1.00;;;19.50;36.40;;;;;;5074219;28;20039;-55
2021/04/13 19:34:13;;;;;;;3.83;0.70;;;19.50;36.40;;;;;;5074552;28;20045;-57
2021/04/13 19:36:46;;;;;;;6.50;1.00;;;19.50;36.40;;;;;;5077846;28;20357;-55
2021/04/13 19:39:19;;;;;;;;;;;19.60;36.50;;;;;;5078117;28;20105;-59
2021/04/13 19:41:49;;;;;;;2.50;0.70;;;19.60;36.50;;;;;;5077820;28;19911;-55
2021/04/13 19:44:34;;;;;;;2.45;0.80;;;19.50;36.50;;;;;;5078211;28;20032;-57
2021/04/13 19:47:05;;;;;;;3.83;1.30;;;19.60;36.50;;;;;;5077759;28;20036;-52
2021/04/13 19:49:33;;;;;;;2.05;0.82;;;19.60;36.50;;;;;;5077846;28;20036;-56
2021/04/13 19:52:08;;;;;;;1.77;1.02;;;19.60;36.50;;;;;;5077762;28;20451;-57
2021/04/13 19:54:43;;;;;;;3.30;1.00;;;19.60;36.60;;;;;;5077234;28;20419;-56
2021/04/13 19:57:13;;;;;;;2.65;0.65;;;19.60;36.50;;;;;;5077520;28;20036;-57
2021/04/13 19:59:45;;;;;;;3.22;0.82;;;19.70;36.50;;;;;;5077004;28;20120;-58
2021/04/13 20:02:18;;;;;;;1.23;0.60;;;19.80;36.60;;;;;;5077105;28;20442;-56
2021/04/13 20:04:46;;;;;;;3.60;0.80;;;19.80;36.60;;;;;;5077006;28;20414;-60
2021/04/13 20:07:13;;;;;;;1.10;0.60;;;19.80;37.20;;;;;;5076966;28;20037;-58
2021/04/13 20:09:40;;;;;;;2.17;0.85;;;19.90;36.50;;;;;;5076826;28;20040;-56
2021/04/13 20:12:12;;;;;;;2.03;0.90;;;19.90;36.50;;;;;;5077219;28;20035;-57
2021/04/13 20:15:00;;;;;;;2.55;0.80;;;19.90;36.50;;;;;;5077139;28;20135;-59
2021/04/13 20:17:39;;;;;;;1.58;0.85;;;19.90;36.60;;;;;;5077181;28;20115;-57
2021/04/13 20:20:20;;;;;;;2.78;0.60;;;20.00;36.70;;;;;;5076469;28;20371;-52
2021/04/13 20:22:50;;;;;;;4.97;0.55;;;20.00;36.70;;;;;;5077405;28;20044;-57
2021/04/13 20:25:32;;;;;;;4.38;0.70;;;20.10;36.70;;;;;;5077117;28;20115;-56
2021/04/13 20:28:08;;;;;;;1.10;0.65;;;20.10;36.70;;;;;;5076611;28;20418;-56
2021/04/13 20:30:38;;;;;;;0.70;0.40;;;20.20;36.70;;;;;;5076966;28;20115;-58
2021/04/13 20:33:25;;;;;;;2.55;0.70;;;20.20;36.70;;;;;;5076863;28;20123;-58
2021/04/13 20:38:18;;;;;;;1.95;0.50;;;20.20;36.60;;;;;;5076890;28;20044;-57
2021/04/13 20:38:54;;;;;;;2.70;0.70;;;20.30;36.70;;;;;;5075678;28;20098;-56
2021/04/13 20:41:27;;;;;;;1.27;0.60;;;20.30;36.70;;;;;;5076644;28;20324;-54
2021/04/13 20:44:03;;;;;;;2.17;0.70;;;20.30;36.60;;;;;;5077105;28;20028;-56
2021/04/13 20:46:54;;;;;;;0.88;0.43;;;20.40;36.60;;;;;;5076288;28;20469;-55
2021/04/13 20:49:44;;;;;;;1.27;0.65;;;20.40;36.60;;;;;;5065221;28;20040;-54
2021/04/13 20:52:19;;;;;;;0.77;0.45;;;20.50;36.70;;;;;;5076212;28;20391;-58
2021/04/13 20:54:50;;;;;;;0.55;0.35;;;20.50;36.70;;;;;;5076694;28;20050;-57
2021/04/13 20:57:22;;;;;;;0.50;0.47;;;20.50;36.70;;;;;;5076830;28;20040;-56
2021/04/13 20:59:58;;;;;;;1.08;0.65;;;20.50;36.70;;;;;;5076264;28;20463;-55
2021/04/13 21:02:28;;;;;;;1.48;0.70;;;20.50;36.60;;;;;;5076338;28;20032;-55
2021/04/13 21:05:00;;;;;;;0.77;0.60;;;20.50;36.20;;;;;;5076321;28;20040;-56
2021/04/13 21:07:37;;;;;;;1.35;0.60;;;20.50;35.70;;;;;;5076247;28;20032;-56
2021/04/13 21:10:09;;;;;;;1.50;0.75;;;20.40;35.20;;;;;;5076464;28;20033;-54